sensor_id;sensor_type;location;lat;lon;timestamp;P1;durP1;ratioP1;P2;durP2;ratioP2
44784;SDS011;30507;53.160;8.210;2024-02-28T00:00:42;2.57;;;2.37;;
44784;SDS011;30507;53.160;8.210;2024-02-28T00:03:08;3.23;;;2.73;;
44784;SDS011;30507;53.160;8.210;2024-02-28T00:05:33;2.53;;;2.33;;
44784;SDS011;30507;53.160;8.210;2024-02-28T00:07:58;2.65;;;2.45;;
44784;SDS011;30507;53.160;8.210;2024-02-28T00:10:23;2.65;;;2.45;;
44784;SDS011;30507;53.160;8.210;2024-02-28T00:12:48;3.00;;;2.75;;
44784;SDS011;30507;53.160;8.210;2024-02-28T00:15:13;2.67;;;2.47;;
44784;SDS011;30507;53.160;8.210;2024-02-28T00:17:39;2.50;;;2.07;;
44784;SDS011;30507;53.160;8.210;2024-02-28T00:20:07;2.45;;;2.25;;
44784;SDS011;30507;53.160;8.210;2024-02-28T00:22:33;2.53;;;2.13;;
44784;SDS011;30507;53.160;8.210;2024-02-28T00:24:58;2.40;;;2.17;;
44784;SDS011;30507;53.160;8.210;2024-02-28T00:27:25;2.42;;;2.22;;
44784;SDS011;30507;53.160;8.210;2024-02-28T00:29:51;2.13;;;2.00;;
44784;SDS011;30507;53.160;8.210;2024-02-28T00:32:16;2.35;;;2.15;;
44784;SDS011;30507;53.160;8.210;2024-02-28T00:34:41;2.90;;;2.60;;
44784;SDS011;30507;53.160;8.210;2024-02-28T00:37:06;2.93;;;2.27;;
44784;SDS011;30507;53.160;8.210;2024-02-28T00:39:31;3.17;;;2.77;;
44784;SDS011;30507;53.160;8.210;2024-02-28T00:41:56;3.50;;;2.87;;
44784;SDS011;30507;53.160;8.210;2024-02-28T00:44:22;2.80;;;2.43;;
44784;SDS011;30507;53.160;8.210;2024-02-28T00:46:47;2.40;;;2.07;;
44784;SDS011;30507;53.160;8.210;2024-02-28T00:49:12;2.70;;;2.50;;
44784;SDS011;30507;53.160;8.210;2024-02-28T00:51:37;2.50;;;2.30;;
44784;SDS011;30507;53.160;8.210;2024-02-28T00:54:02;3.13;;;2.83;;
44784;SDS011;30507;53.160;8.210;2024-02-28T00:56:27;2.57;;;2.37;;
44784;SDS011;30507;53.160;8.210;2024-02-28T00:58:53;2.40;;;2.20;;
44784;SDS011;30507;53.160;8.210;2024-02-28T01:01:18;3.20;;;2.88;;
44784;SDS011;30507;53.160;8.210;2024-02-28T01:03:43;3.60;;;3.30;;
44784;SDS011;30507;53.160;8.210;2024-02-28T01:06:08;2.67;;;2.47;;
44784;SDS011;30507;53.160;8.210;2024-02-28T01:08:34;2.22;;;2.03;;
44784;SDS011;30507;53.160;8.210;2024-02-28T01:10:59;2.70;;;2.50;;
44784;SDS011;30507;53.160;8.210;2024-02-28T01:13:24;2.87;;;2.60;;
44784;SDS011;30507;53.160;8.210;2024-02-28T01:15:49;4.13;;;2.77;;
44784;SDS011;30507;53.160;8.210;2024-02-28T01:18:14;2.50;;;2.30;;
44784;SDS011;30507;53.160;8.210;2024-02-28T01:20:39;2.60;;;2.40;;
44784;SDS011;30507;53.160;8.210;2024-02-28T01:23:04;2.97;;;2.72;;
44784;SDS011;30507;53.160;8.210;2024-02-28T01:25:30;3.30;;;3.00;;
44784;SDS011;30507;53.160;8.210;2024-02-28T01:27:55;2.37;;;2.13;;
44784;SDS011;30507;53.160;8.210;2024-02-28T01:30:21;3.35;;;3.08;;
44784;SDS011;30507;53.160;8.210;2024-02-28T01:32:46;4.90;;;2.93;;
44784;SDS011;30507;53.160;8.210;2024-02-28T01:35:11;3.00;;;2.70;;
44784;SDS011;30507;53.160;8.210;2024-02-28T01:37:36;2.77;;;2.57;;
44784;SDS011;30507;53.160;8.210;2024-02-28T01:40:01;3.10;;;2.80;;
44784;SDS011;30507;53.160;8.210;2024-02-28T01:42:29;3.07;;;2.77;;
44784;SDS011;30507;53.160;8.210;2024-02-28T01:44:55;3.40;;;3.10;;
44784;SDS011;30507;53.160;8.210;2024-02-28T01:47:20;3.17;;;2.93;;
44784;SDS011;30507;53.160;8.210;2024-02-28T01:49:45;3.10;;;2.80;;
44784;SDS011;30507;53.160;8.210;2024-02-28T01:52:11;3.60;;;3.30;;
44784;SDS011;30507;53.160;8.210;2024-02-28T01:54:37;3.20;;;2.90;;
44784;SDS011;30507;53.160;8.210;2024-02-28T01:57:02;2.83;;;2.42;;
44784;SDS011;30507;53.160;8.210;2024-02-28T01:59:28;3.50;;;3.15;;
44784;SDS011;30507;53.160;8.210;2024-02-28T02:01:54;3.65;;;3.25;;
44784;SDS011;30507;53.160;8.210;2024-02-28T02:04:20;3.58;;;3.28;;
44784;SDS011;30507;53.160;8.210;2024-02-28T02:06:45;3.63;;;3.30;;
44784;SDS011;30507;53.160;8.210;2024-02-28T02:09:12;2.58;;;2.38;;
44784;SDS011;30507;53.160;8.210;2024-02-28T02:11:38;3.53;;;3.23;;
44784;SDS011;30507;53.160;8.210;2024-02-28T02:14:03;3.25;;;2.95;;
44784;SDS011;30507;53.160;8.210;2024-02-28T02:16:28;3.25;;;3.00;;
44784;SDS011;30507;53.160;8.210;2024-02-28T02:18:55;3.42;;;3.13;;
44784;SDS011;30507;53.160;8.210;2024-02-28T02:21:22;3.63;;;3.23;;
44784;SDS011;30507;53.160;8.210;2024-02-28T02:23:48;4.30;;;3.33;;
44784;SDS011;30507;53.160;8.210;2024-02-28T02:26:13;3.95;;;3.05;;
44784;SDS011;30507;53.160;8.210;2024-02-28T02:28:38;3.10;;;2.65;;
44784;SDS011;30507;53.160;8.210;2024-02-28T02:31:03;3.67;;;3.30;;
44784;SDS011;30507;53.160;8.210;2024-02-28T02:33:29;3.45;;;3.10;;
44784;SDS011;30507;53.160;8.210;2024-02-28T02:35:54;3.70;;;3.40;;
44784;SDS011;30507;53.160;8.210;2024-02-28T02:38:19;4.30;;;3.67;;
44784;SDS011;30507;53.160;8.210;2024-02-28T02:40:48;4.00;;;3.53;;
44784;SDS011;30507;53.160;8.210;2024-02-28T02:43:13;4.53;;;4.13;;
44784;SDS011;30507;53.160;8.210;2024-02-28T02:45:39;5.22;;;4.57;;
44784;SDS011;30507;53.160;8.210;2024-02-28T02:48:04;4.43;;;3.70;;
44784;SDS011;30507;53.160;8.210;2024-02-28T02:50:29;4.50;;;4.10;;
44784;SDS011;30507;53.160;8.210;2024-02-28T02:52:55;3.50;;;3.17;;
44784;SDS011;30507;53.160;8.210;2024-02-28T02:55:20;4.20;;;3.70;;
44784;SDS011;30507;53.160;8.210;2024-02-28T02:57:45;4.57;;;4.18;;
44784;SDS011;30507;53.160;8.210;2024-02-28T03:00:11;4.43;;;3.58;;
44784;SDS011;30507;53.160;8.210;2024-02-28T03:02:36;4.32;;;3.92;;
44784;SDS011;30507;53.160;8.210;2024-02-28T03:05:04;3.77;;;3.47;;
44784;SDS011;30507;53.160;8.210;2024-02-28T03:07:29;4.05;;;3.65;;
44784;SDS011;30507;53.160;8.210;2024-02-28T03:09:55;4.07;;;3.77;;
44784;SDS011;30507;53.160;8.210;2024-02-28T03:12:20;3.43;;;3.07;;
44784;SDS011;30507;53.160;8.210;2024-02-28T03:14:46;3.83;;;3.40;;
44784;SDS011;30507;53.160;8.210;2024-02-28T03:17:11;3.57;;;3.00;;
44784;SDS011;30507;53.160;8.210;2024-02-28T03:19:37;4.57;;;3.80;;
44784;SDS011;30507;53.160;8.210;2024-02-28T03:22:02;3.80;;;3.50;;
44784;SDS011;30507;53.160;8.210;2024-02-28T03:24:28;4.53;;;3.97;;
44784;SDS011;30507;53.160;8.210;2024-02-28T03:26:53;4.45;;;3.58;;
44784;SDS011;30507;53.160;8.210;2024-02-28T03:29:18;3.35;;;3.00;;
44784;SDS011;30507;53.160;8.210;2024-02-28T03:31:43;4.55;;;3.30;;
44784;SDS011;30507;53.160;8.210;2024-02-28T03:34:08;3.80;;;3.50;;
44784;SDS011;30507;53.160;8.210;2024-02-28T03:36:34;3.78;;;3.10;;
44784;SDS011;30507;53.160;8.210;2024-02-28T03:39:00;3.40;;;3.10;;
44784;SDS011;30507;53.160;8.210;2024-02-28T03:41:25;3.77;;;3.33;;
44784;SDS011;30507;53.160;8.210;2024-02-28T03:43:50;5.15;;;3.05;;
44784;SDS011;30507;53.160;8.210;2024-02-28T03:46:15;4.45;;;3.70;;
44784;SDS011;30507;53.160;8.210;2024-02-28T03:48:40;3.63;;;3.33;;
44784;SDS011;30507;53.160;8.210;2024-02-28T03:51:05;3.40;;;3.10;;
44784;SDS011;30507;53.160;8.210;2024-02-28T03:53:31;3.13;;;2.77;;
44784;SDS011;30507;53.160;8.210;2024-02-28T03:55:56;3.38;;;3.08;;
44784;SDS011;30507;53.160;8.210;2024-02-28T03:58:21;3.17;;;2.88;;
44784;SDS011;30507;53.160;8.210;2024-02-28T04:00:46;3.67;;;3.17;;
44784;SDS011;30507;53.160;8.210;2024-02-28T04:03:11;2.70;;;2.47;;
44784;SDS011;30507;53.160;8.210;2024-02-28T04:05:38;3.03;;;2.72;;
44784;SDS011;30507;53.160;8.210;2024-02-28T04:08:04;2.92;;;2.63;;
44784;SDS011;30507;53.160;8.210;2024-02-28T04:10:29;3.37;;;3.07;;
44784;SDS011;30507;53.160;8.210;2024-02-28T04:12:54;3.42;;;3.13;;
44784;SDS011;30507;53.160;8.210;2024-02-28T04:15:19;3.90;;;3.60;;
44784;SDS011;30507;53.160;8.210;2024-02-28T04:17:45;3.17;;;2.87;;
44784;SDS011;30507;53.160;8.210;2024-02-28T04:20:10;2.95;;;2.72;;
44784;SDS011;30507;53.160;8.210;2024-02-28T04:22:36;2.95;;;2.70;;
44784;SDS011;30507;53.160;8.210;2024-02-28T04:25:01;3.10;;;2.77;;
44784;SDS011;30507;53.160;8.210;2024-02-28T04:27:26;3.35;;;2.90;;
44784;SDS011;30507;53.160;8.210;2024-02-28T04:29:51;2.90;;;2.60;;
44784;SDS011;30507;53.160;8.210;2024-02-28T04:32:16;2.58;;;2.38;;
44784;SDS011;30507;53.160;8.210;2024-02-28T04:34:41;3.30;;;2.92;;
44784;SDS011;30507;53.160;8.210;2024-02-28T04:37:07;3.33;;;3.03;;
44784;SDS011;30507;53.160;8.210;2024-02-28T04:39:32;3.60;;;3.30;;
44784;SDS011;30507;53.160;8.210;2024-02-28T04:41:57;2.93;;;2.53;;
44784;SDS011;30507;53.160;8.210;2024-02-28T04:44:22;2.63;;;2.43;;
44784;SDS011;30507;53.160;8.210;2024-02-28T04:46:47;3.20;;;2.58;;
44784;SDS011;30507;53.160;8.210;2024-02-28T04:49:12;2.57;;;2.37;;
44784;SDS011;30507;53.160;8.210;2024-02-28T04:51:37;2.63;;;2.43;;
44784;SDS011;30507;53.160;8.210;2024-02-28T04:54:03;2.90;;;2.60;;
44784;SDS011;30507;53.160;8.210;2024-02-28T04:56:28;2.67;;;2.47;;
44784;SDS011;30507;53.160;8.210;2024-02-28T04:58:53;2.92;;;2.70;;
44784;SDS011;30507;53.160;8.210;2024-02-28T05:01:18;2.93;;;2.63;;
44784;SDS011;30507;53.160;8.210;2024-02-28T05:03:43;3.07;;;2.67;;
44784;SDS011;30507;53.160;8.210;2024-02-28T05:06:09;3.28;;;2.97;;
44784;SDS011;30507;53.160;8.210;2024-02-28T05:08:36;3.23;;;2.90;;
44784;SDS011;30507;53.160;8.210;2024-02-28T05:11:01;3.90;;;3.23;;
44784;SDS011;30507;53.160;8.210;2024-02-28T05:13:26;3.10;;;2.83;;
44784;SDS011;30507;53.160;8.210;2024-02-28T05:15:51;2.83;;;2.60;;
44784;SDS011;30507;53.160;8.210;2024-02-28T05:18:17;2.27;;;2.07;;
44784;SDS011;30507;53.160;8.210;2024-02-28T05:20:42;3.60;;;3.00;;
44784;SDS011;30507;53.160;8.210;2024-02-28T05:23:07;3.43;;;3.13;;
44784;SDS011;30507;53.160;8.210;2024-02-28T05:25:32;3.42;;;2.92;;
44784;SDS011;30507;53.160;8.210;2024-02-28T05:27:57;3.67;;;3.38;;
44784;SDS011;30507;53.160;8.210;2024-02-28T05:30:22;3.23;;;2.93;;
44784;SDS011;30507;53.160;8.210;2024-02-28T05:32:47;2.93;;;2.73;;
44784;SDS011;30507;53.160;8.210;2024-02-28T05:35:13;3.90;;;3.50;;
44784;SDS011;30507;53.160;8.210;2024-02-28T05:37:39;4.70;;;3.67;;
44784;SDS011;30507;53.160;8.210;2024-02-28T05:40:06;3.38;;;3.00;;
44784;SDS011;30507;53.160;8.210;2024-02-28T05:42:31;3.33;;;2.88;;
44784;SDS011;30507;53.160;8.210;2024-02-28T05:44:56;4.95;;;3.13;;
44784;SDS011;30507;53.160;8.210;2024-02-28T05:47:21;4.87;;;3.37;;
44784;SDS011;30507;53.160;8.210;2024-02-28T05:49:46;4.97;;;3.30;;
44784;SDS011;30507;53.160;8.210;2024-02-28T05:52:11;4.33;;;3.63;;
44784;SDS011;30507;53.160;8.210;2024-02-28T05:54:38;7.55;;;4.78;;
44784;SDS011;30507;53.160;8.210;2024-02-28T05:57:03;7.33;;;6.00;;
44784;SDS011;30507;53.160;8.210;2024-02-28T05:59:28;10.80;;;6.90;;
44784;SDS011;30507;53.160;8.210;2024-02-28T06:01:53;11.07;;;7.57;;
44784;SDS011;30507;53.160;8.210;2024-02-28T06:04:19;16.10;;;8.77;;
44784;SDS011;30507;53.160;8.210;2024-02-28T06:06:44;10.48;;;8.07;;
44784;SDS011;30507;53.160;8.210;2024-02-28T06:09:09;11.07;;;8.00;;
44784;SDS011;30507;53.160;8.210;2024-02-28T06:11:35;10.70;;;8.18;;
44784;SDS011;30507;53.160;8.210;2024-02-28T06:14:00;10.85;;;8.60;;
44784;SDS011;30507;53.160;8.210;2024-02-28T06:16:26;10.77;;;7.32;;
44784;SDS011;30507;53.160;8.210;2024-02-28T06:18:51;12.15;;;6.82;;
44784;SDS011;30507;53.160;8.210;2024-02-28T06:21:16;11.03;;;7.90;;
44784;SDS011;30507;53.160;8.210;2024-02-28T06:23:42;13.10;;;7.65;;
44784;SDS011;30507;53.160;8.210;2024-02-28T06:26:07;11.17;;;7.23;;
44784;SDS011;30507;53.160;8.210;2024-02-28T06:28:39;9.95;;;7.22;;
44784;SDS011;30507;53.160;8.210;2024-02-28T06:31:11;8.85;;;6.55;;
44784;SDS011;30507;53.160;8.210;2024-02-28T06:33:36;8.75;;;6.45;;
44784;SDS011;30507;53.160;8.210;2024-02-28T06:36:01;11.23;;;5.57;;
44784;SDS011;30507;53.160;8.210;2024-02-28T06:38:26;10.13;;;6.07;;
44784;SDS011;30507;53.160;8.210;2024-02-28T06:40:51;8.35;;;5.78;;
44784;SDS011;30507;53.160;8.210;2024-02-28T06:43:16;9.02;;;5.45;;
44784;SDS011;30507;53.160;8.210;2024-02-28T06:45:42;8.37;;;6.27;;
44784;SDS011;30507;53.160;8.210;2024-02-28T06:48:07;8.43;;;5.37;;
44784;SDS011;30507;53.160;8.210;2024-02-28T06:50:32;12.18;;;6.60;;
44784;SDS011;30507;53.160;8.210;2024-02-28T06:52:57;8.53;;;5.67;;
44784;SDS011;30507;53.160;8.210;2024-02-28T06:55:23;8.20;;;5.97;;
44784;SDS011;30507;53.160;8.210;2024-02-28T06:57:48;8.23;;;5.57;;
44784;SDS011;30507;53.160;8.210;2024-02-28T07:00:13;11.75;;;5.95;;
44784;SDS011;30507;53.160;8.210;2024-02-28T07:02:39;7.80;;;4.85;;
44784;SDS011;30507;53.160;8.210;2024-02-28T07:05:04;7.60;;;5.30;;
44784;SDS011;30507;53.160;8.210;2024-02-28T07:07:31;7.13;;;4.82;;
44784;SDS011;30507;53.160;8.210;2024-02-28T07:09:56;5.78;;;4.70;;
44784;SDS011;30507;53.160;8.210;2024-02-28T07:12:22;7.30;;;5.65;;
44784;SDS011;30507;53.160;8.210;2024-02-28T07:14:47;7.55;;;4.90;;
44784;SDS011;30507;53.160;8.210;2024-02-28T07:17:12;8.02;;;5.65;;
44784;SDS011;30507;53.160;8.210;2024-02-28T07:19:37;5.78;;;5.18;;
44784;SDS011;30507;53.160;8.210;2024-02-28T07:22:03;8.23;;;5.33;;
44784;SDS011;30507;53.160;8.210;2024-02-28T07:24:30;7.32;;;4.85;;
44784;SDS011;30507;53.160;8.210;2024-02-28T07:26:55;7.40;;;5.23;;
44784;SDS011;30507;53.160;8.210;2024-02-28T07:29:20;6.03;;;4.93;;
44784;SDS011;30507;53.160;8.210;2024-02-28T07:31:46;5.77;;;5.00;;
44784;SDS011;30507;53.160;8.210;2024-02-28T07:34:11;6.97;;;4.67;;
44784;SDS011;30507;53.160;8.210;2024-02-28T07:36:36;6.70;;;4.30;;
44784;SDS011;30507;53.160;8.210;2024-02-28T07:39:02;5.28;;;4.07;;
44784;SDS011;30507;53.160;8.210;2024-02-28T07:41:27;6.05;;;4.85;;
44784;SDS011;30507;53.160;8.210;2024-02-28T07:43:52;5.03;;;3.90;;
44784;SDS011;30507;53.160;8.210;2024-02-28T07:46:18;5.93;;;3.90;;
44784;SDS011;30507;53.160;8.210;2024-02-28T07:48:43;5.57;;;4.10;;
44784;SDS011;30507;53.160;8.210;2024-02-28T07:51:08;5.38;;;3.80;;
44784;SDS011;30507;53.160;8.210;2024-02-28T07:53:33;5.47;;;4.20;;
44784;SDS011;30507;53.160;8.210;2024-02-28T07:55:58;6.73;;;4.60;;
44784;SDS011;30507;53.160;8.210;2024-02-28T07:58:24;5.23;;;3.67;;
44784;SDS011;30507;53.160;8.210;2024-02-28T08:00:53;6.77;;;5.63;;
44784;SDS011;30507;53.160;8.210;2024-02-28T08:03:18;5.72;;;4.05;;
44784;SDS011;30507;53.160;8.210;2024-02-28T08:05:44;8.02;;;4.40;;
44784;SDS011;30507;53.160;8.210;2024-02-28T08:08:09;7.15;;;4.65;;
44784;SDS011;30507;53.160;8.210;2024-02-28T08:10:35;5.72;;;3.92;;
44784;SDS011;30507;53.160;8.210;2024-02-28T08:13:00;5.05;;;3.70;;
44784;SDS011;30507;53.160;8.210;2024-02-28T08:15:25;4.25;;;3.75;;
44784;SDS011;30507;53.160;8.210;2024-02-28T08:17:50;4.18;;;3.75;;
44784;SDS011;30507;53.160;8.210;2024-02-28T08:20:16;5.40;;;3.90;;
44784;SDS011;30507;53.160;8.210;2024-02-28T08:22:41;5.53;;;3.43;;
44784;SDS011;30507;53.160;8.210;2024-02-28T08:25:06;4.90;;;3.53;;
44784;SDS011;30507;53.160;8.210;2024-02-28T08:27:32;4.40;;;3.65;;
44784;SDS011;30507;53.160;8.210;2024-02-28T08:29:59;4.70;;;3.13;;
44784;SDS011;30507;53.160;8.210;2024-02-28T08:32:24;4.78;;;3.38;;
44784;SDS011;30507;53.160;8.210;2024-02-28T08:34:49;5.20;;;3.55;;
44784;SDS011;30507;53.160;8.210;2024-02-28T08:37:14;4.23;;;3.43;;
44784;SDS011;30507;53.160;8.210;2024-02-28T08:39:39;5.20;;;3.90;;
44784;SDS011;30507;53.160;8.210;2024-02-28T08:42:05;3.77;;;3.20;;
44784;SDS011;30507;53.160;8.210;2024-02-28T08:44:30;4.70;;;3.60;;
44784;SDS011;30507;53.160;8.210;2024-02-28T08:46:55;4.43;;;3.37;;
44784;SDS011;30507;53.160;8.210;2024-02-28T08:49:20;4.00;;;2.88;;
44784;SDS011;30507;53.160;8.210;2024-02-28T08:51:45;4.10;;;3.22;;
44784;SDS011;30507;53.160;8.210;2024-02-28T08:54:11;4.47;;;3.08;;
44784;SDS011;30507;53.160;8.210;2024-02-28T08:56:36;4.10;;;3.67;;
44784;SDS011;30507;53.160;8.210;2024-02-28T08:59:01;4.13;;;3.47;;
44784;SDS011;30507;53.160;8.210;2024-02-28T09:01:26;4.03;;;3.65;;
44784;SDS011;30507;53.160;8.210;2024-02-28T09:03:51;4.43;;;3.35;;
44784;SDS011;30507;53.160;8.210;2024-02-28T09:06:16;3.60;;;2.90;;
44784;SDS011;30507;53.160;8.210;2024-02-28T09:08:41;4.68;;;3.95;;
44784;SDS011;30507;53.160;8.210;2024-02-28T09:11:07;4.97;;;3.60;;
44784;SDS011;30507;53.160;8.210;2024-02-28T09:13:32;3.97;;;2.93;;
44784;SDS011;30507;53.160;8.210;2024-02-28T09:15:57;4.30;;;3.27;;
44784;SDS011;30507;53.160;8.210;2024-02-28T09:18:23;3.10;;;2.78;;
44784;SDS011;30507;53.160;8.210;2024-02-28T09:20:48;3.05;;;2.75;;
44784;SDS011;30507;53.160;8.210;2024-02-28T09:23:13;3.38;;;2.83;;
44784;SDS011;30507;53.160;8.210;2024-02-28T09:25:39;4.05;;;2.65;;
44784;SDS011;30507;53.160;8.210;2024-02-28T09:28:05;3.53;;;3.00;;
44784;SDS011;30507;53.160;8.210;2024-02-28T09:30:30;3.47;;;3.17;;
44784;SDS011;30507;53.160;8.210;2024-02-28T09:32:55;3.35;;;2.45;;
44784;SDS011;30507;53.160;8.210;2024-02-28T09:35:20;3.75;;;3.20;;
44784;SDS011;30507;53.160;8.210;2024-02-28T09:37:45;3.38;;;3.08;;
44784;SDS011;30507;53.160;8.210;2024-02-28T09:40:10;3.30;;;2.67;;
44784;SDS011;30507;53.160;8.210;2024-02-28T09:42:36;4.70;;;3.13;;
44784;SDS011;30507;53.160;8.210;2024-02-28T09:45:01;4.03;;;3.25;;
44784;SDS011;30507;53.160;8.210;2024-02-28T09:47:27;3.75;;;3.35;;
44784;SDS011;30507;53.160;8.210;2024-02-28T09:49:52;2.90;;;2.60;;
44784;SDS011;30507;53.160;8.210;2024-02-28T09:52:18;3.70;;;2.80;;
44784;SDS011;30507;53.160;8.210;2024-02-28T09:54:43;3.40;;;3.10;;
44784;SDS011;30507;53.160;8.210;2024-02-28T09:57:09;3.30;;;3.00;;
44784;SDS011;30507;53.160;8.210;2024-02-28T09:59:36;3.17;;;2.83;;
44784;SDS011;30507;53.160;8.210;2024-02-28T10:02:01;3.57;;;2.83;;
44784;SDS011;30507;53.160;8.210;2024-02-28T10:04:28;3.20;;;2.90;;
44784;SDS011;30507;53.160;8.210;2024-02-28T10:06:54;3.28;;;2.60;;
44784;SDS011;30507;53.160;8.210;2024-02-28T10:09:19;3.13;;;2.83;;
44784;SDS011;30507;53.160;8.210;2024-02-28T10:11:44;3.10;;;2.53;;
44784;SDS011;30507;53.160;8.210;2024-02-28T10:14:09;2.97;;;2.78;;
44784;SDS011;30507;53.160;8.210;2024-02-28T10:16:34;3.28;;;2.60;;
44784;SDS011;30507;53.160;8.210;2024-02-28T10:19:00;2.50;;;2.30;;
44784;SDS011;30507;53.160;8.210;2024-02-28T10:21:25;2.63;;;2.13;;
44784;SDS011;30507;53.160;8.210;2024-02-28T10:23:51;3.30;;;2.88;;
44784;SDS011;30507;53.160;8.210;2024-02-28T10:26:16;3.43;;;3.07;;
44784;SDS011;30507;53.160;8.210;2024-02-28T10:28:42;2.58;;;2.38;;
44784;SDS011;30507;53.160;8.210;2024-02-28T10:31:10;4.30;;;2.95;;
44784;SDS011;30507;53.160;8.210;2024-02-28T10:33:35;3.40;;;2.70;;
44784;SDS011;30507;53.160;8.210;2024-02-28T10:36:02;2.85;;;2.50;;
44784;SDS011;30507;53.160;8.210;2024-02-28T10:38:27;3.30;;;2.95;;
44784;SDS011;30507;53.160;8.210;2024-02-28T10:40:53;2.97;;;2.67;;
44784;SDS011;30507;53.160;8.210;2024-02-28T10:43:18;2.92;;;2.53;;
44784;SDS011;30507;53.160;8.210;2024-02-28T10:45:44;3.85;;;3.45;;
44784;SDS011;30507;53.160;8.210;2024-02-28T10:48:09;3.03;;;2.58;;
44784;SDS011;30507;53.160;8.210;2024-02-28T10:50:35;3.17;;;2.55;;
44784;SDS011;30507;53.160;8.210;2024-02-28T10:53:02;3.70;;;2.73;;
44784;SDS011;30507;53.160;8.210;2024-02-28T10:55:32;2.83;;;2.60;;
44784;SDS011;30507;53.160;8.210;2024-02-28T10:57:59;2.20;;;2.00;;
44784;SDS011;30507;53.160;8.210;2024-02-28T11:00:26;2.83;;;2.42;;
44784;SDS011;30507;53.160;8.210;2024-02-28T11:02:52;2.97;;;2.53;;
44784;SDS011;30507;53.160;8.210;2024-02-28T11:05:17;3.40;;;2.67;;
44784;SDS011;30507;53.160;8.210;2024-02-28T11:07:43;2.65;;;2.35;;
44784;SDS011;30507;53.160;8.210;2024-02-28T11:10:08;2.45;;;2.25;;
44784;SDS011;30507;53.160;8.210;2024-02-28T11:12:35;2.15;;;1.95;;
44784;SDS011;30507;53.160;8.210;2024-02-28T11:15:02;2.42;;;2.22;;
44784;SDS011;30507;53.160;8.210;2024-02-28T11:17:28;2.22;;;2.03;;
44784;SDS011;30507;53.160;8.210;2024-02-28T11:19:54;3.03;;;2.38;;
44784;SDS011;30507;53.160;8.210;2024-02-28T11:22:19;2.28;;;1.98;;
44784;SDS011;30507;53.160;8.210;2024-02-28T11:24:45;2.67;;;2.05;;
44784;SDS011;30507;53.160;8.210;2024-02-28T11:27:11;2.42;;;2.15;;
44784;SDS011;30507;53.160;8.210;2024-02-28T11:29:38;2.30;;;2.10;;
44784;SDS011;30507;53.160;8.210;2024-02-28T11:32:04;2.72;;;2.25;;
44784;SDS011;30507;53.160;8.210;2024-02-28T11:34:30;3.28;;;2.78;;
44784;SDS011;30507;53.160;8.210;2024-02-28T11:36:55;2.00;;;1.80;;
44784;SDS011;30507;53.160;8.210;2024-02-28T11:39:20;2.50;;;2.30;;
44784;SDS011;30507;53.160;8.210;2024-02-28T11:41:46;3.35;;;2.55;;
44784;SDS011;30507;53.160;8.210;2024-02-28T11:44:12;2.57;;;2.37;;
44784;SDS011;30507;53.160;8.210;2024-02-28T11:46:37;3.13;;;2.70;;
44784;SDS011;30507;53.160;8.210;2024-02-28T11:49:02;2.93;;;2.43;;
44784;SDS011;30507;53.160;8.210;2024-02-28T11:51:28;2.25;;;1.98;;
44784;SDS011;30507;53.160;8.210;2024-02-28T11:53:54;2.97;;;2.30;;
44784;SDS011;30507;53.160;8.210;2024-02-28T11:56:19;2.47;;;2.15;;
44784;SDS011;30507;53.160;8.210;2024-02-28T11:58:49;2.83;;;2.28;;
44784;SDS011;30507;53.160;8.210;2024-02-28T12:01:14;2.72;;;2.53;;
44784;SDS011;30507;53.160;8.210;2024-02-28T12:03:44;2.78;;;2.58;;
44784;SDS011;30507;53.160;8.210;2024-02-28T12:06:09;2.67;;;2.47;;
44784;SDS011;30507;53.160;8.210;2024-02-28T12:08:36;2.35;;;2.15;;
44784;SDS011;30507;53.160;8.210;2024-02-28T12:11:07;3.17;;;2.17;;
44784;SDS011;30507;53.160;8.210;2024-02-28T12:13:33;2.15;;;1.95;;
44784;SDS011;30507;53.160;8.210;2024-02-28T12:15:58;2.60;;;2.37;;
44784;SDS011;30507;53.160;8.210;2024-02-28T12:18:25;2.60;;;2.40;;
44784;SDS011;30507;53.160;8.210;2024-02-28T12:20:52;2.80;;;2.60;;
44784;SDS011;30507;53.160;8.210;2024-02-28T12:23:17;2.13;;;1.93;;
44784;SDS011;30507;53.160;8.210;2024-02-28T12:25:43;2.80;;;2.15;;
44784;SDS011;30507;53.160;8.210;2024-02-28T12:28:08;2.63;;;2.42;;
44784;SDS011;30507;53.160;8.210;2024-02-28T12:30:39;2.45;;;2.22;;
44784;SDS011;30507;53.160;8.210;2024-02-28T12:33:04;2.00;;;1.80;;
44784;SDS011;30507;53.160;8.210;2024-02-28T12:35:29;2.23;;;2.03;;
44784;SDS011;30507;53.160;8.210;2024-02-28T12:37:54;2.28;;;2.08;;
44784;SDS011;30507;53.160;8.210;2024-02-28T12:40:20;2.30;;;2.10;;
44784;SDS011;30507;53.160;8.210;2024-02-28T12:42:45;2.27;;;2.07;;
44784;SDS011;30507;53.160;8.210;2024-02-28T12:45:10;1.92;;;1.60;;
44784;SDS011;30507;53.160;8.210;2024-02-28T12:47:35;2.25;;;2.00;;
44784;SDS011;30507;53.160;8.210;2024-02-28T12:50:02;2.42;;;2.22;;
44784;SDS011;30507;53.160;8.210;2024-02-28T12:52:28;2.47;;;2.28;;
44784;SDS011;30507;53.160;8.210;2024-02-28T12:54:53;2.23;;;2.03;;
44784;SDS011;30507;53.160;8.210;2024-02-28T12:57:18;2.20;;;2.00;;
44784;SDS011;30507;53.160;8.210;2024-02-28T12:59:44;2.25;;;2.05;;
44784;SDS011;30507;53.160;8.210;2024-02-28T13:02:09;1.67;;;1.57;;
44784;SDS011;30507;53.160;8.210;2024-02-28T13:04:35;2.67;;;2.45;;
44784;SDS011;30507;53.160;8.210;2024-02-28T13:07:00;1.63;;;1.53;;
44784;SDS011;30507;53.160;8.210;2024-02-28T13:09:25;2.67;;;2.47;;
44784;SDS011;30507;53.160;8.210;2024-02-28T13:11:50;2.70;;;2.30;;
44784;SDS011;30507;53.160;8.210;2024-02-28T13:14:15;2.50;;;2.30;;
44784;SDS011;30507;53.160;8.210;2024-02-28T13:16:41;2.27;;;2.07;;
44784;SDS011;30507;53.160;8.210;2024-02-28T13:19:06;2.50;;;1.70;;
44784;SDS011;30507;53.160;8.210;2024-02-28T13:21:31;3.83;;;2.30;;
44784;SDS011;30507;53.160;8.210;2024-02-28T13:23:59;1.75;;;1.63;;
44784;SDS011;30507;53.160;8.210;2024-02-28T13:26:25;2.22;;;2.03;;
44784;SDS011;30507;53.160;8.210;2024-02-28T13:28:50;2.30;;;2.10;;
44784;SDS011;30507;53.160;8.210;2024-02-28T13:31:15;2.45;;;2.25;;
44784;SDS011;30507;53.160;8.210;2024-02-28T13:33:41;1.42;;;1.33;;
44784;SDS011;30507;53.160;8.210;2024-02-28T13:36:06;2.40;;;2.10;;
44784;SDS011;30507;53.160;8.210;2024-02-28T13:38:31;2.55;;;2.35;;
44784;SDS011;30507;53.160;8.210;2024-02-28T13:40:57;1.92;;;1.80;;
44784;SDS011;30507;53.160;8.210;2024-02-28T13:43:22;1.80;;;1.60;;
44784;SDS011;30507;53.160;8.210;2024-02-28T13:45:48;2.22;;;2.03;;
44784;SDS011;30507;53.160;8.210;2024-02-28T13:48:17;1.80;;;1.60;;
44784;SDS011;30507;53.160;8.210;2024-02-28T13:50:43;2.10;;;2.00;;
44784;SDS011;30507;53.160;8.210;2024-02-28T13:53:08;1.52;;;1.33;;
44784;SDS011;30507;53.160;8.210;2024-02-28T13:55:33;1.90;;;1.80;;
44784;SDS011;30507;53.160;8.210;2024-02-28T13:57:59;2.38;;;2.20;;
44784;SDS011;30507;53.160;8.210;2024-02-28T14:00:24;2.10;;;2.00;;
44784;SDS011;30507;53.160;8.210;2024-02-28T14:02:49;1.60;;;1.50;;
44784;SDS011;30507;53.160;8.210;2024-02-28T14:05:14;2.30;;;2.10;;
44784;SDS011;30507;53.160;8.210;2024-02-28T14:07:39;1.53;;;1.23;;
44784;SDS011;30507;53.160;8.210;2024-02-28T14:10:05;1.57;;;1.43;;
44784;SDS011;30507;53.160;8.210;2024-02-28T14:12:30;2.00;;;1.90;;
44784;SDS011;30507;53.160;8.210;2024-02-28T14:14:55;1.80;;;1.70;;
44784;SDS011;30507;53.160;8.210;2024-02-28T14:17:20;1.70;;;1.60;;
44784;SDS011;30507;53.160;8.210;2024-02-28T14:19:45;1.90;;;1.80;;
44784;SDS011;30507;53.160;8.210;2024-02-28T14:22:13;2.05;;;1.95;;
44784;SDS011;30507;53.160;8.210;2024-02-28T14:24:38;1.80;;;1.70;;
44784;SDS011;30507;53.160;8.210;2024-02-28T14:27:05;1.77;;;1.67;;
44784;SDS011;30507;53.160;8.210;2024-02-28T14:29:30;1.90;;;1.70;;
44784;SDS011;30507;53.160;8.210;2024-02-28T14:31:55;2.47;;;1.70;;
44784;SDS011;30507;53.160;8.210;2024-02-28T14:34:20;1.63;;;1.50;;
44784;SDS011;30507;53.160;8.210;2024-02-28T14:36:46;2.43;;;2.23;;